Time;durP1;ratioP1;P1;durP2;ratioP2;P2;SDS_P1;SDS_P2;PMS_P1;PMS_P2;Temp;Humidity;BMP_temperature;BMP_pressure;BME280_temperature;BME280_humidity;BME280_pressure;Samples;Min_cycle;Max_cycle;Signal;HPM_P1;HPM_P2
2023/11/12 00:00:42;;;;;;;3.33;1.70;;;;;;;4.27;55.11;91737.06;4927323;29;20095;-81
2023/11/12 00:03:08;;;;;;;2.85;1.55;;;;;;;4.14;56.51;91743.59;4940086;29;20048;-81
2023/11/12 00:05:34;;;;;;;2.35;0.80;;;;;;;4.08;57.20;91752.41;4933545;29;20067;-80
2023/11/12 00:08:00;;;;;;;0.90;0.68;;;;;;;3.96;58.50;91747.53;4933620;29;20043;-82
2023/11/12 00:10:26;;;;;;;0.80;0.70;;;;;;;3.86;59.16;91739.78;4915635;29;20036;-81
2023/11/12 00:12:52;;;;;;;1.02;0.80;;;;;;;3.74;61.35;91760.00;4938971;29;20086;-80
2023/11/12 00:15:18;;;;;;;1.52;1.02;;;;;;;3.61;62.03;91745.78;4936110;29;20047;-81
2023/11/12 00:17:44;;;;;;;0.70;0.70;;;;;;;3.50;64.89;91739.06;4927950;29;20029;-80
2023/11/12 00:20:13;;;;;;;1.73;1.17;;;;;;;3.40;63.92;91737.28;4919708;29;20342;-80
2023/11/12 00:22:43;;;;;;;0.82;0.80;;;;;;;3.36;65.33;91744.00;4925277;29;20601;-80
2023/11/12 00:25:12;;;;;;;1.45;0.90;;;;;;;3.31;66.01;91746.56;4936522;29;20047;-81
2023/11/12 00:27:41;;;;;;;0.63;0.63;;;;;;;3.26;65.61;91744.75;4934876;29;20028;-80
2023/11/12 00:30:08;;;;;;;0.90;0.73;;;;;;;3.22;66.81;91738.56;4931374;29;20151;-80
2023/11/12 00:32:34;;;;;;;0.80;0.80;;;;;;;3.16;69.00;91728.47;4931282;29;20055;-80
2023/11/12 00:35:00;;;;;;;0.60;0.60;;;;;;;3.09;68.35;91733.91;4936502;29;20051;-80
2023/11/12 00:37:26;;;;;;;0.68;0.68;;;;;;;3.02;67.46;91728.22;4918305;29;20050;-79
2023/11/12 00:39:52;;;;;;;0.70;0.70;;;;;;;3.01;68.77;91740.34;4920423;29;20044;-80
2023/11/12 00:42:17;;;;;;;0.60;0.60;;;;;;;3.01;68.84;91753.28;4937928;29;20496;-80
2023/11/12 00:44:43;;;;;;;1.33;0.75;;;;;;;3.00;69.26;91761.31;4928396;29;20043;-79
2023/11/12 00:47:09;;;;;;;0.75;0.75;;;;;;;2.90;68.43;91751.72;4929428;29;20111;-81
2023/11/12 00:49:34;;;;;;;2.63;0.85;;;;;;;2.88;69.69;91764.91;4926139;29;20067;-79
2023/11/12 00:52:00;;;;;;;0.95;0.88;;;;;;;2.90;67.37;91759.47;4934100;29;20040;-80
2023/11/12 00:54:25;;;;;;;0.80;0.80;;;;;;;2.89;70.89;91757.94;4925785;29;20047;-81
2023/11/12 00:56:51;;;;;;;0.93;0.80;;;;;;;2.93;72.63;91761.56;4934917;29;20058;-81
2023/11/12 00:59:17;;;;;;;0.90;0.80;;;;;;;2.94;70.62;91749.41;4938325;29;20183;-81
2023/11/12 01:01:43;;;;;;;1.08;0.90;;;;;;;2.92;72.10;91750.41;4938475;29;20051;-80
2023/11/12 01:04:11;;;;;;;0.73;0.70;;;;;;;2.94;72.35;91734.66;4937341;29;20047;-81
2023/11/12 01:06:37;;;;;;;0.93;0.85;;;;;;;2.94;72.72;91741.66;4929804;29;20039;-80
2023/11/12 01:09:03;;;;;;;2.83;1.20;;;;;;;2.95;73.29;91750.94;4930472;29;20039;-79
2023/11/12 01:11:29;;;;;;;0.80;0.80;;;;;;;2.97;73.58;91747.06;4938873;29;20031;-80
2023/11/12 01:13:55;;;;;;;4.25;0.90;;;;;;;2.97;72.90;91721.22;4931323;29;20062;-80
2023/11/12 01:16:21;;;;;;;2.13;0.95;;;;;;;3.00;72.44;91720.72;4936988;29;20484;-80
2023/11/12 01:18:48;;;;;;;1.25;0.98;;;;;;;3.01;73.04;91721.47;4928368;29;20112;-80
2023/11/12 01:21:14;;;;;;;0.98;0.88;;;;;;;3.02;73.81;91723.81;4937926;29;20032;-80
2023/11/12 01:23:40;;;;;;;0.88;0.88;;;;;;;3.00;76.55;91725.13;4937320;29;20511;-79
2023/11/12 01:26:05;;;;;;;1.45;0.85;;;;;;;3.02;73.69;91712.72;4937444;29;20392;-80
2023/11/12 01:28:34;;;;;;;1.45;1.05;;;;;;;3.03;74.00;91714.25;4938747;29;20073;-80
2023/11/12 01:31:01;;;;;;;0.90;0.90;;;;;;;3.18;67.42;91721.25;4938177;29;20047;-80
2023/11/12 01:33:27;;;;;;;0.85;0.80;;;;;;;3.37;62.68;91724.84;4931820;29;20102;-80
2023/11/12 01:35:54;;;;;;;1.17;0.70;;;;;;;3.42;64.59;91716.28;4930398;29;20053;-80
2023/11/12 01:38:20;;;;;;;0.80;0.80;;;;;;;3.45;65.95;91726.91;4934655;29;20032;-80
2023/11/12 01:40:47;;;;;;;1.58;0.90;;;;;;;3.51;65.62;91727.66;4929825;29;20047;-81
2023/11/12 01:43:16;;;;;;;3.17;0.85;;;;;;;3.54;65.94;91735.69;4936373;29;20051;-81
2023/11/12 01:45:43;;;;;;;0.80;0.80;;;;;;;3.55;65.86;91752.75;4926951;29;20024;-81
2023/11/12 01:48:11;;;;;;;0.57;0.57;;;;;;;3.56;68.23;91750.97;4919397;29;20043;-81
2023/11/12 01:50:38;;;;;;;1.40;0.73;;;;;;;3.55;68.35;91745.00;4931938;29;20078;-81
2023/11/12 01:53:04;;;;;;;0.98;0.90;;;;;;;3.52;70.43;91742.94;4934561;29;20048;-80
2023/11/12 01:55:32;;;;;;;1.20;0.80;;;;;;;3.51;70.65;91743.19;4932754;29;20388;-81
2023/11/12 01:57:59;;;;;;;1.45;1.00;;;;;;;3.53;68.23;91748.88;4935180;29;20075;-80
2023/11/12 02:00:26;;;;;;;1.58;0.88;;;;;;;3.52;66.83;91750.69;4933813;29;20040;-81
2023/11/12 02:02:52;;;;;;;0.95;0.80;;;;;;;3.52;69.20;91744.75;4918615;29;20115;-80
2023/11/12 02:05:20;;;;;;;1.40;0.88;;;;;;;3.51;71.28;91735.44;4927213;29;20043;-80
2023/11/12 02:07:47;;;;;;;1.10;0.90;;;;;;;3.49;71.76;91732.31;4931439;29;20048;-81
2023/11/12 02:10:15;;;;;;;0.93;0.73;;;;;;;3.45;73.29;91721.72;4926252;29;20111;-80
2023/11/12 02:12:45;;;;;;;1.15;0.90;;;;;;;3.47;74.06;91717.06;4931108;29;20063;-79
2023/11/12 02:15:15;;;;;;;0.70;0.70;;;;;;;3.47;76.44;91719.66;4935739;29;20036;-80
2023/11/12 02:17:43;;;;;;;1.23;0.90;;;;;;;3.47;75.25;91713.72;4935516;29;20048;-80
2023/11/12 02:20:19;;;;;;;1.38;0.95;;;;;;;3.42;78.01;91698.94;4941256;29;20499;-79
2023/11/12 02:22:44;;;;;;;2.35;1.10;;;;;;;3.44;80.30;91704.63;4932256;29;20036;-80
2023/11/12 02:25:11;;;;;;;0.68;0.68;;;;;;;3.45;80.29;91708.78;4933233;29;20044;-80
2023/11/12 02:27:38;;;;;;;1.23;0.93;;;;;;;3.47;76.08;91708.53;4923286;29;20530;-80
2023/11/12 02:30:08;;;;;;;1.10;1.00;;;;;;;3.46;78.14;91705.16;4939318;29;20031;-80
2023/11/12 02:32:34;;;;;;;0.75;0.75;;;;;;;3.48;79.32;91716.03;4933605;29;20083;-80
2023/11/12 02:35:02;;;;;;;1.05;0.90;;;;;;;3.48;79.68;91731.56;4938960;29;20400;-80
2023/11/12 02:37:29;;;;;;;0.80;0.80;;;;;;;3.51;76.91;91728.47;4928387;29;20043;-79
2023/11/12 02:39:54;;;;;;;0.82;0.73;;;;;;;3.52;76.59;91719.66;4937812;29;20043;-81
2023/11/12 02:42:21;;;;;;;1.00;0.75;;;;;;;3.63;74.66;91717.81;4927812;29;20043;-81
2023/11/12 02:44:48;;;;;;;0.82;0.80;;;;;;;3.87;63.80;91696.53;4919810;29;20046;-80
2023/11/12 02:47:14;;;;;;;0.70;0.70;;;;;;;4.09;58.91;91685.84;4940302;29;20031;-79
2023/11/12 02:49:49;;;;;;;1.00;0.90;;;;;;;4.13;59.09;91707.59;4939363;29;20031;-80
2023/11/12 02:52:14;;;;;;;0.85;0.80;;;;;;;4.07;59.94;91700.88;4930645;29;20196;-80
2023/11/12 02:54:40;;;;;;;0.95;0.80;;;;;;;4.08;59.60;91695.44;4932728;29;20099;-80
2023/11/12 02:57:06;;;;;;;0.77;0.70;;;;;;;4.17;55.74;91686.06;4938809;29;20043;-80
2023/11/12 02:59:31;;;;;;;0.93;0.77;;;;;;;4.20;56.84;91689.16;4939486;29;20055;-80
2023/11/12 03:01:57;;;;;;;0.93;0.70;;;;;;;4.30;55.31;91705.44;4921256;29;20044;-80
2023/11/12 03:04:23;;;;;;;0.80;0.77;;;;;;;4.42;55.86;91709.53;4932893;29;20036;-80
2023/11/12 03:06:48;;;;;;;0.80;0.80;;;;;;;4.35;57.65;91708.00;4939586;29;20052;-80
2023/11/12 03:09:15;;;;;;;1.13;0.68;;;;;;;4.24;60.13;91709.09;4939460;29;20031;-80
2023/11/12 03:11:40;;;;;;;0.90;0.90;;;;;;;4.18;61.63;91721.28;4922072;29;20095;-80
2023/11/12 03:14:08;;;;;;;1.02;0.82;;;;;;;4.12;64.15;91717.19;4931357;29;20027;-80
2023/11/12 03:16:34;;;;;;;1.02;0.93;;;;;;;4.09;61.03;91714.31;4932553;29;20055;-80
2023/11/12 03:19:00;;;;;;;0.75;0.75;;;;;;;4.23;58.57;91715.31;4937703;29;20040;-81
2023/11/12 03:21:26;;;;;;;0.60;0.60;;;;;;;4.28;60.43;91712.72;4931009;29;20046;-80
2023/11/12 03:23:52;;;;;;;0.75;0.70;;;;;;;4.19;61.10;91706.53;4913999;29;20036;-80
2023/11/12 03:26:18;;;;;;;0.60;0.60;;;;;;;4.13;63.32;91713.53;4935359;29;20081;-81
2023/11/12 03:28:45;;;;;;;0.80;0.80;;;;;;;4.26;60.87;91706.25;4926224;29;20098;-80
2023/11/12 03:31:10;;;;;;;0.80;0.80;;;;;;;4.35;61.95;91702.81;4929900;29;20039;-80
2023/11/12 03:33:36;;;;;;;7.75;3.03;;;;;;;4.50;62.64;91703.78;4919131;29;20043;-80
2023/11/12 03:36:02;;;;;;;1.05;0.82;;;;;;;4.50;57.14;91709.75;4939839;29;20119;-80
2023/11/12 03:38:31;;;;;;;0.90;0.80;;;;;;;4.31;58.88;91699.22;4936105;29;20456;-79
2023/11/12 03:40:57;;;;;;;1.30;0.88;;;;;;;4.41;60.10;91700.19;4931963;29;20567;-81
2023/11/12 03:43:23;;;;;;;0.80;0.80;;;;;;;4.31;60.39;91704.38;4939176;29;20051;-80
2023/11/12 03:45:48;;;;;;;6.03;2.05;;;;;;;4.15;62.57;91695.91;4939080;29;20044;-81
2023/11/12 03:48:14;;;;;;;16.27;5.05;;;;;;;4.09;63.71;91709.91;4931479;29;20023;-80
2023/11/12 03:50:41;;;;;;;11.95;3.88;;;;;;;4.02;63.42;91706.06;4932447;29;20102;-80
2023/11/12 03:53:07;;;;;;;39.88;12.45;;;;;;;3.92;67.70;91710.25;4922527;29;20134;-79
2023/11/12 03:55:33;;;;;;;20.23;7.63;;;;;;;3.88;68.62;91709.22;4920942;29;20160;-80
2023/11/12 03:57:58;;;;;;;7.57;3.00;;;;;;;3.84;73.12;91708.19;4936332;29;20039;-80
2023/11/12 04:00:24;;;;;;;4.65;1.75;;;;;;;3.79;74.69;91705.63;4937848;29;20735;-80
2023/11/12 04:02:50;;;;;;;2.60;1.30;;;;;;;3.76;76.80;91708.75;4934716;29;20555;-81
2023/11/12 04:05:16;;;;;;;2.28;1.20;;;;;;;3.69;80.17;91709.03;4939720;29;20039;-80
2023/11/12 04:07:41;;;;;;;4.75;2.13;;;;;;;3.65;82.24;91704.63;4933159;29;20129;-80
2023/11/12 04:10:07;;;;;;;2.38;1.40;;;;;;;3.65;80.79;91708.00;4933607;29;20024;-80
2023/11/12 04:12:33;;;;;;;4.05;1.85;;;;;;;3.71;76.54;91699.16;4923195;29;20043;-80
2023/11/12 04:14:59;;;;;;;6.07;2.92;;;;;;;3.69;76.16;91697.88;4928264;29;20035;-81
2023/11/12 04:17:24;;;;;;;6.25;3.20;;;;;;;3.69;74.28;91695.28;4929444;29;20032;-81
2023/11/12 04:19:50;;;;;;;6.68;3.50;;;;;;;3.69;73.75;91697.88;4927307;29;20044;-81
2023/11/12 04:22:17;;;;;;;4.88;2.30;;;;;;;3.73;72.23;91702.25;4933297;29;20051;-80
2023/11/12 04:24:44;;;;;;;5.90;3.53;;;;;;;3.71;72.54;91713.91;4930617;29;20028;-80
2023/11/12 04:27:09;;;;;;;2.38;1.52;;;;;;;3.58;73.04;91699.72;4930177;29;20112;-80
2023/11/12 04:29:37;;;;;;;2.65;1.42;;;;;;;3.66;74.18;91716.53;4931635;29;20044;-80
2023/11/12 04:32:03;;;;;;;3.75;1.70;;;;;;;3.68;73.73;91735.94;4935899;29;20400;-80
2023/11/12 04:34:31;;;;;;;2.65;1.40;;;;;;;3.73;71.50;91740.31;4932334;29;20059;-80
2023/11/12 04:36:57;;;;;;;2.10;1.20;;;;;;;3.77;69.10;91750.94;4934188;29;20035;-80
2023/11/12 04:39:23;;;;;;;1.38;1.05;;;;;;;3.79;69.41;91751.44;4919638;29;20070;-80
2023/11/12 04:41:49;;;;;;;1.25;1.00;;;;;;;3.73;70.54;91743.69;4921101;29;20043;-80
2023/11/12 04:44:16;;;;;;;1.63;0.90;;;;;;;3.69;69.44;91736.69;4912927;29;20095;-80
2023/11/12 04:46:41;;;;;;;1.33;1.00;;;;;;;3.65;69.50;91731.28;4930845;29;20680;-81
2023/11/12 04:49:07;;;;;;;1.50;1.10;;;;;;;3.69;68.02;91741.88;4932316;29;20159;-80
2023/11/12 04:51:33;;;;;;;3.05;1.27;;;;;;;3.69;68.68;91741.88;4941185;29;20047;-81
2023/11/12 04:53:59;;;;;;;1.25;0.95;;;;;;;3.67;70.05;91749.91;4933562;29;20043;-80
2023/11/12 04:56:24;;;;;;;2.10;0.93;;;;;;;3.66;71.91;91742.41;4939993;29;20039;-81
2023/11/12 04:58:50;;;;;;;0.77;0.77;;;;;;;3.65;73.41;91740.88;4939437;29;20048;-80
2023/11/12 05:01:17;;;;;;;2.03;1.20;;;;;;;3.64;77.08;91739.31;4935599;29;20083;-80
2023/11/12 05:03:42;;;;;;;0.95;0.90;;;;;;;3.62;77.50;91741.38;4941510;29;20083;-81
2023/11/12 05:06:08;;;;;;;1.77;1.02;;;;;;;3.59;80.10;91741.91;4939167;29;20082;-81
2023/11/12 05:08:34;;;;;;;1.00;0.90;;;;;;;3.55;77.91;91720.94;4928477;29;20091;-81
2023/11/12 05:10:59;;;;;;;1.35;1.00;;;;;;;3.52;81.16;91732.59;4937708;29;20032;-81
2023/11/12 05:13:25;;;;;;;1.13;0.93;;;;;;;3.50;82.21;91739.84;4938804;29;20103;-80
2023/11/12 05:15:51;;;;;;;1.38;1.05;;;;;;;3.48;85.86;91738.53;4930768;29;20031;-80
2023/11/12 05:18:17;;;;;;;1.42;1.00;;;;;;;3.46;87.39;91727.69;4937897;29;20075;-80
2023/11/12 05:20:43;;;;;;;2.65;1.30;;;;;;;3.44;84.75;91721.97;4932485;29;20064;-81
2023/11/12 05:23:09;;;;;;;1.13;1.00;;;;;;;3.36;82.13;91705.19;4940105;29;20048;-80
2023/11/12 05:25:35;;;;;;;1.60;0.93;;;;;;;3.39;88.42;91709.81;4907684;29;20110;-81
2023/11/12 05:28:01;;;;;;;1.65;1.00;;;;;;;3.43;86.82;91723.03;4939766;29;20484;-81
2023/11/12 05:30:27;;;;;;;0.93;0.90;;;;;;;3.53;85.83;91720.41;4941037;29;20075;-80
2023/11/12 05:32:53;;;;;;;1.15;1.05;;;;;;;3.44;87.48;91719.41;4937453;29;20043;-81
2023/11/12 05:35:19;;;;;;;4.32;1.02;;;;;;;3.40;88.83;91726.91;4930181;29;20048;-80
2023/11/12 05:37:47;;;;;;;1.33;1.00;;;;;;;3.40;89.62;91713.97;4938439;29;20038;-80
2023/11/12 05:40:13;;;;;;;1.88;1.10;;;;;;;3.40;88.85;91710.59;4940001;29;20036;-79
2023/11/12 05:42:39;;;;;;;1.33;1.00;;;;;;;3.41;78.37;91707.75;4939541;29;20175;-80
2023/11/12 05:45:05;;;;;;;1.10;1.00;;;;;;;3.50;81.48;91719.13;4929634;29;20126;-80
2023/11/12 05:47:31;;;;;;;1.65;1.10;;;;;;;3.48;81.35;91721.19;4932851;29;20111;-80
2023/11/12 05:49:57;;;;;;;1.10;0.95;;;;;;;3.47;81.79;91742.19;4933646;29;20330;-81
2023/11/12 05:52:22;;;;;;;2.25;1.00;;;;;;;3.47;82.51;91763.66;4939755;29;20048;-81
2023/11/12 05:54:48;;;;;;;1.45;1.02;;;;;;;3.43;82.48;91739.31;4931418;29;20046;-80
2023/11/12 05:57:14;;;;;;;1.80;1.02;;;;;;;3.48;81.65;91738.53;4942369;29;20051;-80
2023/11/12 05:59:39;;;;;;;0.85;0.85;;;;;;;3.49;75.67;91722.78;4942356;29;20067;-80
2023/11/12 06:02:05;;;;;;;0.93;0.90;;;;;;;3.61;74.58;91694.00;4941225;29;20108;-80
2023/11/12 06:04:30;;;;;;;0.85;0.80;;;;;;;3.66;75.38;91695.81;4942324;29;20036;-80
2023/11/12 06:06:56;;;;;;;1.15;1.00;;;;;;;3.65;76.51;91694.28;4934037;29;20135;-80
2023/11/12 06:09:22;;;;;;;1.10;0.90;;;;;;;3.62;76.94;91708.50;4938281;29;20017;-81
2023/11/12 06:11:47;;;;;;;0.80;0.80;;;;;;;3.62;79.17;91710.31;4932180;29;20118;-80
2023/11/12 06:14:13;;;;;;;0.80;0.80;;;;;;;3.63;81.79;91717.81;4930848;29;20923;-81
2023/11/12 06:16:39;;;;;;;1.05;0.90;;;;;;;3.60;83.58;91726.09;4941960;29;20452;-80
2023/11/12 06:19:05;;;;;;;1.65;0.90;;;;;;;3.60;85.61;91736.44;4941191;29;20047;-80
2023/11/12 06:21:31;;;;;;;1.67;0.90;;;;;;;3.65;86.46;91736.47;4936806;29;20098;-80
2023/11/12 06:23:56;;;;;;;0.88;0.88;;;;;;;3.66;87.14;91734.63;4937450;29;20164;-80
2023/11/12 06:26:22;;;;;;;1.02;0.90;;;;;;;3.67;87.94;91725.81;4939474;29;20040;-80
2023/11/12 06:28:51;;;;;;;1.52;1.00;;;;;;;3.69;89.00;91726.34;4932284;29;20043;-80
2023/11/12 06:31:17;;;;;;;1.95;1.30;;;;;;;3.66;90.08;91727.66;4937609;29;20413;-80
2023/11/12 06:33:43;;;;;;;0.85;0.85;;;;;;;3.69;91.00;91739.28;4935056;29;20049;-80
2023/11/12 06:36:13;;;;;;;0.80;0.80;;;;;;;3.73;90.43;91740.31;4939046;29;20512;-80
2023/11/12 06:38:41;;;;;;;1.80;0.88;;;;;;;3.74;89.35;91739.28;4940326;29;20435;-80
2023/11/12 06:41:09;;;;;;;0.98;0.90;;;;;;;3.75;90.73;91746.00;4941441;29;20048;-80
2023/11/12 06:43:35;;;;;;;1.00;0.90;;;;;;;3.74;91.44;91749.66;4932251;29;20023;-80
2023/11/12 06:46:00;;;;;;;1.55;0.98;;;;;;;3.78;91.12;91755.84;4930170;29;20043;-80
2023/11/12 06:48:26;;;;;;;1.17;0.80;;;;;;;3.79;90.07;91761.81;4912682;29;20039;-80
2023/11/12 06:50:52;;;;;;;1.10;0.80;;;;;;;3.74;90.38;91755.59;4935574;29;20036;-80
2023/11/12 06:53:17;;;;;;;1.30;1.00;;;;;;;3.75;90.21;91777.06;4939894;29;20036;-80
2023/11/12 06:55:43;;;;;;;1.02;0.90;;;;;;;3.70;91.95;91779.69;4938683;29;20050;-80
2023/11/12 06:58:09;;;;;;;1.00;0.90;;;;;;;3.75;93.76;91787.44;4937975;29;20388;-81
2023/11/12 07:00:35;;;;;;;2.33;1.08;;;;;;;3.76;96.84;91781.22;4936438;29;20051;-80
2023/11/12 07:03:00;;;;;;;4.53;1.85;;;;;;;3.75;99.91;91761.53;4941262;29;20043;-80
2023/11/12 07:05:30;;;;;;;1.08;0.90;;;;;;;3.72;97.91;91751.72;4922145;29;20103;-80
2023/11/12 07:07:56;;;;;;;1.48;1.00;;;;;;;3.79;93.68;91765.16;4914957;29;20043;-80
2023/11/12 07:10:22;;;;;;;0.93;0.85;;;;;;;3.82;89.39;91767.22;4932157;29;20035;-78
2023/11/12 07:12:48;;;;;;;0.60;0.60;;;;;;;3.93;91.95;91770.56;4936836;29;20099;-80
2023/11/12 07:15:14;;;;;;;0.98;0.85;;;;;;;3.93;94.25;91760.22;4923695;29;20393;-80
2023/11/12 07:17:39;;;;;;;0.77;0.77;;;;;;;4.09;100.00;91769.50;4934558;29;20035;-78
2023/11/12 07:20:06;;;;;;;1.70;0.93;;;;;;;4.11;98.44;91767.41;4928210;29;20031;-81
2023/11/12 07:22:35;;;;;;;0.80;0.70;;;;;;;4.17;98.32;91771.56;4927443;29;20547;-80
2023/11/12 07:25:02;;;;;;;0.82;0.75;;;;;;;4.29;100.00;91784.19;4905742;29;20036;-81
2023/11/12 07:27:27;;;;;;;0.70;0.70;;;;;;;4.46;100.00;91780.50;4937782;29;20040;-80
2023/11/12 07:29:53;;;;;;;0.93;0.80;;;;;;;4.94;100.00;91788.59;4934206;29;20087;-81
2023/11/12 07:32:20;;;;;;;0.90;0.88;;;;;;;5.90;95.33;91782.94;4932260;29;20039;-81
2023/11/12 07:34:47;;;;;;;0.70;0.70;;;;;;;7.10;87.88;91769.91;4932253;29;20115;-83
2023/11/12 07:37:13;;;;;;;0.80;0.80;;;;;;;8.37;76.31;91774.13;4930367;29;20573;-80
2023/11/12 07:39:40;;;;;;;1.77;0.80;;;;;;;9.35;67.96;91783.41;4939083;29;20095;-82
2023/11/12 07:42:07;;;;;;;0.82;0.80;;;;;;;10.61;62.43;91783.25;4940681;29;20046;-82
2023/11/12 07:44:35;;;;;;;0.80;0.80;;;;;;;10.98;57.52;91788.28;4936167;29;20043;-82
2023/11/12 07:47:02;;;;;;;1.35;1.10;;;;;;;11.59;56.08;91785.72;4934039;29;20035;-81
2023/11/12 07:49:28;;;;;;;1.00;0.90;;;;;;;12.20;52.40;91769.94;4930605;29;20055;-80
2023/11/12 07:51:54;;;;;;;0.95;0.95;;;;;;;11.93;54.40;91774.47;4933356;29;20106;-82
2023/11/12 07:54:20;;;;;;;1.00;0.82;;;;;;;13.00;49.63;91775.34;4935189;29;20035;-83
2023/11/12 07:56:45;;;;;;;1.83;0.95;;;;;;;13.90;45.48;91779.38;4933326;29;20039;-83
2023/11/12 07:59:11;;;;;;;2.15;0.93;;;;;;;13.32;46.15;91776.56;4930936;29;20508;-80
2023/11/12 08:01:37;;;;;;;1.42;0.90;;;;;;;11.23;53.08;91776.31;4934446;29;20027;-80
2023/11/12 08:04:03;;;;;;;1.70;1.08;;;;;;;10.55;58.97;91779.22;4934399;29;20048;-82
2023/11/12 08:06:29;;;;;;;2.03;1.10;;;;;;;10.18;61.56;91772.59;4931175;29;20183;-81
2023/11/12 08:08:54;;;;;;;1.08;0.88;;;;;;;9.37;66.89;91783.91;4936094;29;20043;-80
2023/11/12 08:11:21;;;;;;;1.75;1.02;;;;;;;9.14;68.17;91786.47;4921828;29;20286;-81
2023/11/12 08:13:47;;;;;;;2.53;1.15;;;;;;;8.79;71.17;91787.19;4937467;29;20284;-81
2023/11/12 08:16:13;;;;;;;1.77;1.10;;;;;;;8.55;73.17;91786.31;4930124;29;20032;-81
2023/11/12 08:18:43;;;;;;;1.70;1.10;;;;;;;8.49;72.71;91792.72;4932461;29;20054;-80
2023/11/12 08:21:10;;;;;;;1.48;1.10;;;;;;;7.99;74.05;91795.13;4921476;29;20119;-79
2023/11/12 08:23:35;;;;;;;1.00;0.90;;;;;;;7.81;78.64;91791.50;4923380;29;20039;-80
2023/11/12 08:26:02;;;;;;;1.58;1.00;;;;;;;7.64;79.97;91783.47;4936719;29;20051;-80
2023/11/12 08:28:28;;;;;;;2.25;1.20;;;;;;;7.47;80.99;91794.38;4934120;29;20408;-81
2023/11/12 08:30:53;;;;;;;1.77;1.20;;;;;;;7.27;83.13;91785.81;4938332;29;20036;-80
2023/11/12 08:33:19;;;;;;;2.10;1.13;;;;;;;7.14;82.46;91791.72;4934745;29;20518;-81
2023/11/12 08:35:45;;;;;;;1.42;1.00;;;;;;;7.06;82.86;91794.94;4931473;29;20056;-79
2023/11/12 08:38:10;;;;;;;1.73;1.17;;;;;;;7.01;83.14;91795.03;4925434;29;20039;-79
2023/11/12 08:40:41;;;;;;;1.23;0.85;;;;;;;6.69;85.13;91799.06;4929236;29;20046;-79
2023/11/12 08:43:08;;;;;;;1.55;1.00;;;;;;;6.64;87.27;91796.50;4925733;29;20039;-79
2023/11/12 08:45:34;;;;;;;1.52;0.93;;;;;;;6.53;89.12;91795.06;4926799;29;20055;-79
2023/11/12 08:48:00;;;;;;;1.48;1.00;;;;;;;6.57;90.05;91798.69;4912030;29;20166;-79
2023/11/12 08:50:26;;;;;;;3.97;1.30;;;;;;;6.59;92.41;91801.78;4929903;29;20031;-78
2023/11/12 08:52:52;;;;;;;1.77;1.15;;;;;;;6.70;95.90;91798.00;4927180;29;20043;-79
2023/11/12 08:55:18;;;;;;;1.65;1.20;;;;;;;6.83;94.50;91806.97;4927147;29;20439;-79
2023/11/12 08:57:44;;;;;;;2.05;1.10;;;;;;;6.89;94.23;91811.06;4930664;29;20492;-80
2023/11/12 09:00:11;;;;;;;1.90;1.20;;;;;;;6.90;92.01;91804.78;4931416;29;20050;-79
2023/11/12 09:02:37;;;;;;;1.95;1.20;;;;;;;6.88;90.22;91810.25;4925322;29;20118;-83
2023/11/12 09:05:04;;;;;;;2.83;1.65;;;;;;;6.90;89.44;91811.81;4939268;29;20093;-81
2023/11/12 09:07:30;;;;;;;2.50;1.50;;;;;;;6.87;91.61;91808.72;4938299;29;20058;-82
2023/11/12 09:09:56;;;;;;;2.08;1.33;;;;;;;6.83;90.73;91820.75;4931580;29;20028;-81
2023/11/12 09:12:22;;;;;;;1.70;1.00;;;;;;;6.77;88.72;91840.06;4937931;29;20044;-81
2023/11/12 09:14:49;;;;;;;1.75;1.02;;;;;;;6.72;88.84;91837.53;4940180;29;20038;-82
2023/11/12 09:17:15;;;;;;;2.35;1.00;;;;;;;6.65;90.86;91840.44;4943740;29;20056;-81
2023/11/12 09:19:43;;;;;;;1.77;1.13;;;;;;;6.44;93.27;91837.31;4935236;29;20099;-81
2023/11/12 09:22:09;;;;;;;5.97;3.05;;;;;;;6.17;99.79;91839.63;4940001;29;20046;-81
2023/11/12 09:24:35;;;;;;;2.28;1.40;;;;;;;5.97;100.00;91838.78;4934244;29;20023;-82
2023/11/12 09:27:02;;;;;;;2.13;1.25;;;;;;;5.92;100.00;91844.00;4935389;29;20048;-81
2023/11/12 09:29:28;;;;;;;1.70;1.17;;;;;;;5.75;100.00;91841.00;4932417;29;20028;-82
2023/11/12 09:31:55;;;;;;;2.72;1.13;;;;;;;5.54;100.00;91838.56;4938906;29;20082;-82
2023/11/12 09:34:20;;;;;;;1.98;1.13;;;;;;;5.53;100.00;91839.59;4934675;29;20103;-82
2023/11/12 09:36:46;;;;;;;1.83;1.25;;;;;;;5.50;100.00;91854.97;4942256;29;20147;-82
2023/11/12 09:39:16;;;;;;;4.32;2.42;;;;;;;5.66;100.00;91853.03;4942048;29;20040;-82
2023/11/12 09:41:51;;;;;;;3.50;1.88;;;;;;;5.81;100.00;91845.13;4943944;29;20051;-82
2023/11/12 09:44:17;;;;;;;2.25;1.25;;;;;;;6.03;95.92;91850.69;4943018;29;20098;-82
2023/11/12 09:46:59;;;;;;;1.85;1.20;;;;;;;6.29;95.36;91853.03;4938701;29;20028;-82
2023/11/12 09:49:24;;;;;;;2.78;1.17;;;;;;;6.38;96.60;91853.22;4945289;29;20042;-82
2023/11/12 09:51:50;;;;;;;2.20;1.10;;;;;;;6.57;98.60;91856.66;4942142;29;20028;-82
2023/11/12 09:54:17;;;;;;;2.03;1.15;;;;;;;6.70;98.10;91846.66;4943772;29;20040;-82
2023/11/12 09:56:49;;;;;;;1.90;1.10;;;;;;;6.80;94.84;91855.13;4938028;29;20112;-82
2023/11/12 09:59:14;;;;;;;2.08;1.20;;;;;;;7.04;94.83;91864.72;4926975;29;21094;-82
2023/11/12 10:01:40;;;;;;;1.90;1.20;;;;;;;7.37;90.42;91863.00;4944170;29;20488;-83
2023/11/12 10:04:06;;;;;;;1.73;1.23;;;;;;;7.21;93.60;91867.63;4927297;29;20048;-82
2023/11/12 10:06:33;;;;;;;1.50;1.13;;;;;;;7.53;93.14;91866.19;4935901;29;20050;-82
2023/11/12 10:09:00;;;;;;;1.38;1.00;;;;;;;7.46;95.25;91860.56;4935066;29;20488;-82
2023/11/12 10:11:30;;;;;;;1.73;1.15;;;;;;;7.26;97.51;91864.97;4931772;29;20032;-82
2023/11/12 10:13:56;;;;;;;1.75;1.20;;;;;;;7.20;99.48;91863.47;4939339;29;20067;-82
2023/11/12 10:16:30;;;;;;;2.10;1.30;;;;;;;7.61;99.14;91867.34;4941010;29;20039;-82
2023/11/12 10:19:13;;;;;;;2.30;1.40;;;;;;;7.72;100.00;91861.75;4933895;29;20051;-82
2023/11/12 10:22:00;;;;;;;2.58;1.40;;;;;;;7.86;100.00;91858.41;4943525;29;20031;-82
2023/11/12 10:24:30;;;;;;;2.55;1.23;;;;;;;7.97;99.55;91865.03;4938577;29;20028;-82
2023/11/12 10:27:04;;;;;;;1.85;1.30;;;;;;;8.25;95.16;91859.88;4940625;29;20530;-81
2023/11/12 10:29:31;;;;;;;2.75;1.10;;;;;;;8.28;87.78;91861.91;4929897;29;20067;-82
2023/11/12 10:31:57;;;;;;;1.13;0.93;;;;;;;7.96;88.24;91868.69;4932601;29;20036;-79
2023/11/12 10:34:26;;;;;;;1.15;1.02;;;;;;;7.86;90.27;91871.44;4925389;29;20392;-79
2023/11/12 10:37:02;;;;;;;0.93;0.80;;;;;;;7.68;90.28;91875.63;4927404;29;20071;-79
2023/11/12 10:39:40;;;;;;;3.10;1.10;;;;;;;7.40;92.89;91862.44;4929939;29;20304;-80
2023/11/12 10:42:10;;;;;;;2.13;1.20;;;;;;;7.19;96.59;91871.59;4926372;29;20046;-79
2023/11/12 10:44:37;;;;;;;1.50;1.20;;;;;;;7.17;92.94;91871.84;4930691;29;20093;-79
2023/11/12 10:47:07;;;;;;;2.60;1.30;;;;;;;7.26;92.12;91872.78;4931132;29;20043;-78
2023/11/12 10:49:34;;;;;;;1.85;1.30;;;;;;;7.35;93.21;91872.16;4928298;29;20058;-80
2023/11/12 10:52:00;;;;;;;2.03;1.30;;;;;;;7.73;90.39;91865.13;4933941;29;20047;-79
2023/11/12 10:54:31;;;;;;;1.63;1.08;;;;;;;7.76;94.83;91863.78;4929983;29;20480;-80
2023/11/12 10:56:58;;;;;;;2.47;1.40;;;;;;;7.67;92.58;91861.03;4931139;29;20344;-80
2023/11/12 10:59:26;;;;;;;3.22;1.40;;;;;;;7.46;95.53;91866.53;4928951;29;20101;-80
2023/11/12 11:01:52;;;;;;;2.60;1.35;;;;;;;7.16;94.87;91870.31;4928397;29;20072;-79
2023/11/12 11:04:19;;;;;;;2.15;1.40;;;;;;;6.98;96.50;91873.63;4931122;29;20036;-79
2023/11/12 11:06:45;;;;;;;2.13;1.40;;;;;;;7.00;94.82;91871.53;4932465;29;20500;-79
2023/11/12 11:09:12;;;;;;;1.60;1.02;;;;;;;7.08;94.42;91870.94;4928383;29;20046;-79
2023/11/12 11:11:38;;;;;;;2.92;1.50;;;;;;;6.98;95.64;91865.81;4933302;29;20036;-80
2023/11/12 11:14:25;;;;;;;1.45;1.10;;;;;;;7.05;93.71;91861.09;4929153;29;20094;-80
2023/11/12 11:16:52;;;;;;;6.30;2.17;;;;;;;7.00;94.28;91854.13;4940681;29;20051;-78
2023/11/12 11:19:19;;;;;;;2.80;1.30;;;;;;;6.91;94.68;91853.16;4945114;29;20087;-79
2023/11/12 11:22:26;;;;;;;1.35;1.05;;;;;;;7.09;97.75;91854.25;4946479;29;20031;-81
2023/11/12 11:24:56;;;;;;;1.73;1.30;;;;;;;7.09;92.85;91856.84;4930598;29;20047;-80
2023/11/12 11:27:24;;;;;;;2.80;1.33;;;;;;;7.06;94.59;91855.59;4926908;29;20258;-79
2023/11/12 11:30:12;;;;;;;1.88;1.10;;;;;;;7.37;95.43;91857.81;4931672;29;20032;-80
2023/11/12 11:32:59;;;;;;;3.40;1.48;;;;;;;7.69;98.27;91854.47;4933407;29;20712;-80
2023/11/12 11:35:26;;;;;;;3.55;0.95;;;;;;;7.87;91.12;91857.34;4941147;29;20709;-80
2023/11/12 11:38:07;;;;;;;1.65;1.17;;;;;;;7.82;93.22;91863.41;4952782;28;20063;-80
2023/11/12 11:40:34;;;;;;;1.83;1.15;;;;;;;7.54;100.00;91862.50;4951284;29;20444;-81